Time;durP1;ratioP1;P1;durP2;ratioP2;P2;SDS_P1;SDS_P2;PMS_P1;PMS_P2;Temp;Humidity;BMP_temperature;BMP_pressure;BME280_temperature;BME280_humidity;BME280_pressure;Samples;Min_cycle;Max_cycle;Signal;HPM_P1;HPM_P2
2022/02/01 00:00:16;;;;;;;8.75;5.32;;;;;;;;;;5009225;28;20069;-84
2022/02/01 00:02:50;;;;;;;8.63;6.15;;;;;;;;;;4988611;28;20130;-84
2022/02/01 00:05:35;;;;;;;8.70;6.22;;;;;;;;;;5009419;28;20117;-82
2022/02/01 00:08:20;;;;;;;9.85;6.60;;;;;;;;;;5007385;28;20049;-83
2022/02/01 00:11:27;;;;;;;10.98;6.25;;;;;;;;;;5007411;28;20014;-83
2022/02/01 00:13:59;;;;;;;8.35;6.00;;;;;;;;;;5006648;28;20023;-83
2022/02/01 00:16:52;;;;;;;10.05;5.95;;;;;;;;;;5023586;28;20060;-84
2022/02/01 00:35:45;;;;;;;10.18;6.68;;;;;;;;;;5008633;28;20061;-83
2022/02/01 00:40:52;;;;;;;8.97;5.87;;;;;;;;;;5007595;28;20129;-82
2022/02/01 00:43:18;;;;;;;8.05;5.03;;;;;;;;;;5006484;28;20581;-83
2022/02/01 00:45:45;;;;;;;8.98;5.90;;;;;;;;;;5005444;28;20056;-84
2022/02/01 00:48:11;;;;;;;7.90;5.13;;;;;;;;;;5006397;28;20026;-84
2022/02/01 00:50:37;;;;;;;8.15;5.30;;;;;;;;;;5004648;28;20080;-84
2022/02/01 00:53:05;;;;;;;8.73;5.50;;;;;;;;;;5007550;28;20100;-83
2022/02/01 00:55:31;;;;;;;8.75;6.30;;;;;;;;;;5004787;28;20026;-83
2022/02/01 00:57:57;;;;;;;9.35;5.53;;;;;;;;;;4996173;28;20457;-83
2022/02/01 01:00:23;;;;;;;7.88;5.15;;;;;;;;;;5005892;28;20031;-82
2022/02/01 01:02:50;;;;;;;8.88;5.35;;;;;;;;;;5007130;28;20054;-82
2022/02/01 01:05:16;;;;;;;10.07;5.47;;;;;;;;;;5006333;28;20034;-83
2022/02/01 01:07:42;;;;;;;8.77;5.28;;;;;;;;;;4997084;28;20023;-83
2022/02/01 01:10:10;;;;;;;8.50;5.03;;;;;;;;;;5006323;28;20022;-82
2022/02/01 01:12:45;;;;;;;7.63;4.75;;;;;;;;;;5007013;28;20022;-83
2022/02/01 01:15:22;;;;;;;8.20;5.25;;;;;;;;;;5007407;28;20037;-83
2022/02/01 01:18:24;;;;;;;8.25;4.78;;;;;;;;;;5010295;28;20023;-82
2022/02/01 01:45:34;;;;;;;4.25;1.67;;;;;;;;;;5008277;28;20045;-83
2022/02/01 01:53:31;;;;;;;4.25;2.00;;;;;;;;;;5006367;28;20088;-83
2022/02/01 01:55:57;;;;;;;4.28;2.10;;;;;;;;;;5005018;28;20033;-83
2022/02/01 01:58:25;;;;;;;4.10;1.92;;;;;;;;;;5004241;28;20030;-83
2022/02/01 02:01:11;;;;;;;5.18;2.47;;;;;;;;;;5005245;28;20034;-83
2022/02/01 02:03:41;;;;;;;4.38;2.08;;;;;;;;;;5006320;28;20069;-83
2022/02/01 02:06:07;;;;;;;4.50;2.10;;;;;;;;;;5005227;28;20103;-83
2022/02/01 02:08:34;;;;;;;4.28;2.03;;;;;;;;;;5002701;28;20053;-83
2022/02/01 02:15:59;;;;;;;5.90;3.22;;;;;;;;;;5006833;28;20057;-84
2022/02/01 02:18:27;;;;;;;6.22;2.70;;;;;;;;;;5003640;28;20054;-83
2022/02/01 02:20:54;;;;;;;6.53;3.47;;;;;;;;;;5004446;28;20026;-83
2022/02/01 02:23:21;;;;;;;5.75;2.90;;;;;;;;;;5009095;28;20552;-83
2022/02/01 02:25:48;;;;;;;7.30;3.90;;;;;;;;;;5007708;28;20022;-83
2022/02/01 02:28:14;;;;;;;7.35;4.15;;;;;;;;;;5006935;28;20029;-84
2022/02/01 02:30:41;;;;;;;8.18;5.13;;;;;;;;;;5008538;28;20054;-82
2022/02/01 02:33:10;;;;;;;9.48;5.63;;;;;;;;;;5007437;28;20492;-84
2022/02/01 02:35:43;;;;;;;11.25;6.53;;;;;;;;;;5007621;28;20026;-83
2022/02/01 02:38:16;;;;;;;;;;;;;;;;;;5008777;28;20025;-83
2022/02/01 02:46:25;;;;;;;16.25;8.60;;;;;;;;;;4978194;28;20038;-83
2022/02/01 02:48:52;;;;;;;15.30;9.05;;;;;;;;;;5001313;28;20046;-83
2022/02/01 02:51:18;;;;;;;17.63;10.35;;;;;;;;;;5005847;28;20030;-83
2022/02/01 02:53:44;;;;;;;14.82;9.27;;;;;;;;;;4988992;28;20525;-83
2022/02/01 02:56:11;;;;;;;19.02;10.00;;;;;;;;;;4985633;28;20565;-82
2022/02/01 02:58:38;;;;;;;16.48;9.48;;;;;;;;;;4985664;28;20032;-83
2022/02/01 03:01:04;;;;;;;17.38;9.93;;;;;;;;;;4986735;28;20085;-83
2022/02/01 03:03:30;;;;;;;16.83;10.05;;;;;;;;;;4988114;28;20098;-84
2022/02/01 03:05:57;;;;;;;15.57;10.60;;;;;;;;;;4988902;28;20521;-84
2022/02/01 03:08:24;;;;;;;17.55;10.52;;;;;;;;;;4990042;28;20045;-82
2022/02/01 03:10:50;;;;;;;18.70;10.57;;;;;;;;;;4993714;28;20090;-83
2022/02/01 03:13:23;;;;;;;17.38;11.30;;;;;;;;;;4993525;28;20043;-83
2022/02/01 03:15:57;;;;;;;;;;;;;;;;;;4989362;28;20029;-83
2022/02/01 03:21:10;;;;;;;19.67;11.18;;;;;;;;;;5003793;28;20554;-82
2022/02/01 03:23:36;;;;;;;20.30;11.43;;;;;;;;;;5008215;28;20042;-84
2022/02/01 03:26:03;;;;;;;19.88;10.30;;;;;;;;;;5008090;28;20568;-83
2022/02/01 03:28:30;;;;;;;18.27;10.13;;;;;;;;;;5007250;28;20033;-84
2022/02/01 03:30:57;;;;;;;20.05;10.95;;;;;;;;;;5009150;28;20109;-84
2022/02/01 03:33:23;;;;;;;16.77;10.00;;;;;;;;;;5024280;28;20022;-83
2022/02/01 03:35:50;;;;;;;14.75;9.68;;;;;;;;;;5007412;28;20022;-82
2022/02/01 03:38:17;;;;;;;16.60;9.82;;;;;;;;;;5007460;28;20026;-82
2022/02/01 03:40:43;;;;;;;16.15;9.13;;;;;;;;;;5007462;28;20039;-82
2022/02/01 03:43:09;;;;;;;17.98;9.77;;;;;;;;;;5005891;28;20540;-82
2022/02/01 03:45:35;;;;;;;15.80;9.45;;;;;;;;;;5005961;28;20088;-83
2022/02/01 03:48:02;;;;;;;15.23;9.15;;;;;;;;;;5004580;28;20069;-82
2022/02/01 03:50:28;;;;;;;17.48;9.25;;;;;;;;;;5004620;28;20113;-84
2022/02/01 03:52:54;;;;;;;17.52;10.38;;;;;;;;;;5005083;28;20026;-82
2022/02/01 03:55:20;;;;;;;17.17;9.82;;;;;;;;;;5006858;28;20038;-83
2022/02/01 03:57:46;;;;;;;15.20;9.80;;;;;;;;;;5005312;28;20034;-83
2022/02/01 04:00:14;;;;;;;16.58;8.50;;;;;;;;;;5006260;28;20018;-83
2022/02/01 04:02:41;;;;;;;16.88;9.05;;;;;;;;;;5002693;28;20131;-82
2022/02/01 04:05:08;;;;;;;17.75;8.88;;;;;;;;;;4997981;28;20449;-82
2022/02/01 04:07:34;;;;;;;19.52;9.35;;;;;;;;;;4999304;28;20030;-82
2022/02/01 04:10:00;;;;;;;17.35;9.93;;;;;;;;;;5006369;28;20031;-83
2022/02/01 04:12:28;;;;;;;18.27;9.38;;;;;;;;;;4990856;28;20058;-83
2022/02/01 04:14:57;;;;;;;16.02;9.00;;;;;;;;;;5002650;28;20026;-82
2022/02/01 04:17:24;;;;;;;15.65;8.75;;;;;;;;;;5003662;28;20258;-82
2022/02/01 04:19:51;;;;;;;15.48;9.15;;;;;;;;;;5005736;28;20027;-82
2022/02/01 04:22:17;;;;;;;15.63;8.45;;;;;;;;;;5005058;28;20031;-83
2022/02/01 04:24:46;;;;;;;16.42;9.27;;;;;;;;;;5005302;28;20106;-83
2022/02/01 04:27:46;;;;;;;17.70;9.52;;;;;;;;;;5004198;28;20098;-82
2022/02/01 04:30:07;;;;;;;17.45;9.90;;;;;;;;;;4995561;28;20033;-82
2022/02/01 04:32:39;;;;;;;18.30;9.77;;;;;;;;;;4998686;28;20405;-83
2022/02/01 04:35:07;;;;;;;18.08;8.77;;;;;;;;;;5004398;28;20030;-82
2022/02/01 04:37:34;;;;;;;16.48;9.18;;;;;;;;;;5008440;28;20038;-83
2022/02/01 04:40:00;;;;;;;15.82;9.32;;;;;;;;;;5009330;28;20041;-83
2022/02/01 04:42:30;;;;;;;17.63;9.02;;;;;;;;;;5008444;28;20030;-83
2022/02/01 04:44:58;;;;;;;14.00;8.57;;;;;;;;;;5004711;28;20022;-82
2022/02/01 04:47:30;;;;;;;18.58;8.95;;;;;;;;;;5008403;28;20030;-83
2022/02/01 04:49:57;;;;;;;16.02;8.50;;;;;;;;;;5009692;28;20037;-82
2022/02/01 04:52:24;;;;;;;17.98;9.35;;;;;;;;;;5011749;28;20019;-83
2022/02/01 04:54:50;;;;;;;18.05;8.98;;;;;;;;;;5008278;28;20030;-82
2022/02/01 04:57:17;;;;;;;17.33;8.57;;;;;;;;;;5006939;28;20034;-83
2022/02/01 04:59:43;;;;;;;16.73;9.70;;;;;;;;;;5004864;28;20022;-82
2022/02/01 05:02:09;;;;;;;15.93;8.35;;;;;;;;;;5005131;28;20042;-82
2022/02/01 05:04:35;;;;;;;19.27;9.90;;;;;;;;;;5003859;28;20117;-82
2022/02/01 05:07:02;;;;;;;17.95;9.60;;;;;;;;;;4997710;28;20018;-82
2022/02/01 05:09:28;;;;;;;20.25;10.75;;;;;;;;;;5003661;28;20049;-82
2022/02/01 05:12:06;;;;;;;20.27;9.20;;;;;;;;;;5002564;28;20041;-82
2022/02/01 05:14:32;;;;;;;18.40;8.73;;;;;;;;;;5003178;28;20029;-82
2022/02/01 05:17:00;;;;;;;18.48;8.40;;;;;;;;;;5002125;28;20037;-82
2022/02/01 05:22:01;;;;;;;21.27;10.07;;;;;;;;;;5004203;28;20038;-83
2022/02/01 05:24:27;;;;;;;18.40;8.77;;;;;;;;;;5003139;28;20098;-82
2022/02/01 05:26:58;;;;;;;22.42;10.60;;;;;;;;;;4998786;28;20037;-82
2022/02/01 05:29:25;;;;;;;20.13;9.13;;;;;;;;;;5003546;28;20037;-82
2022/02/01 05:31:52;;;;;;;20.65;10.10;;;;;;;;;;5004173;28;20029;-81
2022/02/01 05:34:20;;;;;;;20.02;10.10;;;;;;;;;;4998054;28;20021;-82
2022/02/01 05:36:47;;;;;;;21.10;10.10;;;;;;;;;;5001697;28;20050;-82
2022/02/01 05:39:17;;;;;;;18.77;9.10;;;;;;;;;;5001180;28;20032;-82
2022/02/01 05:41:43;;;;;;;19.00;8.73;;;;;;;;;;4997542;28;20042;-82
2022/02/01 05:44:10;;;;;;;24.95;10.60;;;;;;;;;;5003186;28;20072;-82
2022/02/01 05:46:36;;;;;;;21.63;9.00;;;;;;;;;;5002294;28;20052;-81
2022/02/01 05:49:03;;;;;;;20.65;9.88;;;;;;;;;;5004175;28;20018;-82
2022/02/01 05:51:29;;;;;;;18.92;9.63;;;;;;;;;;5002922;28;20037;-82
2022/02/01 05:53:56;;;;;;;20.20;9.38;;;;;;;;;;5000923;28;20089;-82
2022/02/01 05:56:22;;;;;;;20.58;9.93;;;;;;;;;;5000906;28;20026;-81
2022/02/01 05:58:48;;;;;;;17.90;9.25;;;;;;;;;;5002850;28;20034;-81
2022/02/01 06:01:14;;;;;;;21.67;9.32;;;;;;;;;;5006146;28;20031;-80
2022/02/01 06:03:41;;;;;;;18.98;8.77;;;;;;;;;;5004367;28;20042;-81
2022/02/01 06:06:07;;;;;;;23.65;9.77;;;;;;;;;;5004831;28;20086;-81
2022/02/01 06:08:35;;;;;;;20.60;9.35;;;;;;;;;;5001597;28;20026;-81
2022/02/01 06:11:01;;;;;;;19.27;9.95;;;;;;;;;;5004558;28;20091;-81
2022/02/01 06:13:27;;;;;;;26.25;11.45;;;;;;;;;;5005781;28;20480;-81
2022/02/01 06:15:54;;;;;;;18.65;8.57;;;;;;;;;;5004090;28;20026;-81
2022/02/01 06:18:21;;;;;;;22.25;9.65;;;;;;;;;;5003955;28;20064;-81
2022/02/01 06:20:47;;;;;;;21.55;10.23;;;;;;;;;;5004495;28;20030;-81
2022/02/01 06:23:17;;;;;;;21.85;10.15;;;;;;;;;;4996993;28;20394;-81
2022/02/01 06:25:51;;;;;;;20.08;8.93;;;;;;;;;;5005054;28;20084;-81
2022/02/01 06:28:21;;;;;;;20.42;9.68;;;;;;;;;;5004576;28;20046;-81
2022/02/01 06:30:47;;;;;;;23.05;9.23;;;;;;;;;;5008133;28;20019;-80
2022/02/01 06:33:14;;;;;;;21.17;9.07;;;;;;;;;;5007548;28;20015;-81
2022/02/01 06:35:40;;;;;;;19.00;8.80;;;;;;;;;;4999395;28;20034;-81
2022/02/01 06:38:06;;;;;;;17.65;7.97;;;;;;;;;;5000741;28;20034;-81
2022/02/01 06:40:36;;;;;;;20.75;9.02;;;;;;;;;;5005821;28;20030;-81
2022/02/01 06:43:02;;;;;;;17.15;7.22;;;;;;;;;;4988750;28;20039;-81
2022/02/01 06:45:28;;;;;;;15.52;7.28;;;;;;;;;;4998917;28;20705;-81
2022/02/01 06:47:55;;;;;;;16.30;7.38;;;;;;;;;;5003645;28;20030;-81
2022/02/01 06:50:23;;;;;;;17.13;7.55;;;;;;;;;;5005734;28;20057;-81
2022/02/01 06:52:56;;;;;;;16.80;6.68;;;;;;;;;;5004885;28;20050;-80
2022/02/01 06:55:33;;;;;;;15.88;7.20;;;;;;;;;;5001491;28;20401;-81
2022/02/01 06:58:03;;;;;;;18.27;6.55;;;;;;;;;;5003108;28;20022;-81
2022/02/01 07:00:33;;;;;;;16.88;7.50;;;;;;;;;;4992797;28;20081;-81
2022/02/01 07:02:59;;;;;;;17.30;7.22;;;;;;;;;;5004899;28;20077;-81
2022/02/01 07:05:25;;;;;;;17.52;6.75;;;;;;;;;;5005928;28;20040;-81
2022/02/01 07:07:51;;;;;;;17.23;7.53;;;;;;;;;;5007719;28;20018;-83
2022/02/01 07:10:18;;;;;;;15.30;7.00;;;;;;;;;;5008883;28;20026;-83
2022/02/01 07:12:45;;;;;;;16.77;7.90;;;;;;;;;;5008023;28;20022;-82
2022/02/01 07:15:11;;;;;;;13.10;6.60;;;;;;;;;;5009927;28;20086;-82
2022/02/01 07:17:44;;;;;;;16.15;7.80;;;;;;;;;;5008333;28;20095;-82
2022/02/01 07:20:10;;;;;;;18.02;7.72;;;;;;;;;;5007791;28;20054;-81
2022/02/01 07:22:37;;;;;;;19.08;7.93;;;;;;;;;;4999492;28;20033;-82
2022/02/01 07:25:14;;;;;;;18.77;8.05;;;;;;;;;;4993852;28;20041;-82
2022/02/01 07:27:47;;;;;;;15.63;7.68;;;;;;;;;;5006531;28;20026;-82
2022/02/01 07:30:14;;;;;;;12.70;6.47;;;;;;;;;;5005912;28;20015;-83
2022/02/01 07:32:40;;;;;;;16.17;6.57;;;;;;;;;;5005358;28;20034;-81
2022/02/01 07:35:07;;;;;;;18.83;7.95;;;;;;;;;;5006885;28;20026;-82
2022/02/01 07:37:34;;;;;;;18.40;7.75;;;;;;;;;;5007256;28;20030;-82
2022/02/01 07:40:02;;;;;;;14.50;7.70;;;;;;;;;;5008316;28;20026;-82
2022/02/01 07:42:28;;;;;;;17.60;8.23;;;;;;;;;;5002226;28;20098;-82
2022/02/01 07:45:01;;;;;;;19.00;8.10;;;;;;;;;;5002093;28;20500;-82
2022/02/01 07:47:27;;;;;;;16.95;8.23;;;;;;;;;;5000774;28;20038;-82
2022/02/01 07:49:53;;;;;;;13.82;7.78;;;;;;;;;;4988014;28;20025;-83
2022/02/01 07:52:20;;;;;;;32.45;13.38;;;;;;;;;;5007321;28;20033;-83
2022/02/01 07:54:55;;;;;;;17.38;9.10;;;;;;;;;;5009078;28;20033;-83
2022/02/01 07:57:21;;;;;;;16.10;7.97;;;;;;;;;;5002059;28;20046;-82
2022/02/01 07:59:47;;;;;;;13.10;7.72;;;;;;;;;;5006413;28;20083;-84
2022/02/01 08:02:19;;;;;;;15.75;7.00;;;;;;;;;;5006565;28;20065;-82
2022/02/01 08:04:48;;;;;;;16.70;6.57;;;;;;;;;;5006970;28;20034;-83
2022/02/01 08:07:16;;;;;;;14.95;7.00;;;;;;;;;;5004312;28;20034;-83
2022/02/01 08:09:46;;;;;;;19.17;8.32;;;;;;;;;;5004374;28;20089;-83
2022/02/01 08:12:31;;;;;;;14.60;6.38;;;;;;;;;;5003096;28;20054;-82
2022/02/01 08:20:28;;;;;;;14.80;6.27;;;;;;;;;;4989601;28;20049;-82
2022/02/01 08:23:05;;;;;;;16.23;7.40;;;;;;;;;;5004841;28;20283;-84
2022/02/01 08:25:32;;;;;;;14.77;7.35;;;;;;;;;;5003360;28;20126;-82
2022/02/01 08:28:00;;;;;;;16.75;7.30;;;;;;;;;;5003846;28;20030;-82
2022/02/01 08:30:27;;;;;;;15.57;6.72;;;;;;;;;;5004437;28;20026;-82
2022/02/01 08:32:53;;;;;;;14.70;6.72;;;;;;;;;;5004642;28;20053;-83
2022/02/01 08:35:21;;;;;;;16.88;5.82;;;;;;;;;;5005240;28;20026;-82
2022/02/01 08:37:48;;;;;;;11.93;6.53;;;;;;;;;;5004700;28;20029;-82
2022/02/01 08:40:16;;;;;;;14.30;6.97;;;;;;;;;;5004086;28;20033;-83
2022/02/01 08:42:49;;;;;;;15.23;6.72;;;;;;;;;;5003446;28;20034;-83
2022/02/01 08:45:22;;;;;;;14.32;5.70;;;;;;;;;;5002945;28;20070;-82
2022/02/01 08:47:48;;;;;;;;;;;;;;;;;;4997875;28;20027;-83
2022/02/01 08:50:17;;;;;;;14.43;6.18;;;;;;;;;;5000075;28;20280;-82
2022/02/01 08:52:47;;;;;;;15.77;6.93;;;;;;;;;;5003639;28;20061;-83
2022/02/01 08:56:01;;;;;;;16.48;7.20;;;;;;;;;;5002475;28;20033;-82
2022/02/01 08:58:06;;;;;;;15.43;6.72;;;;;;;;;;4988161;28;20516;-83
2022/02/01 09:00:33;;;;;;;14.70;7.65;;;;;;;;;;5003664;28;20073;-83
2022/02/01 09:03:03;;;;;;;14.85;6.75;;;;;;;;;;5004048;28;20042;-83
2022/02/01 09:05:36;;;;;;;13.48;5.55;;;;;;;;;;5003485;28;20041;-83
2022/02/01 09:08:05;;;;;;;14.23;5.90;;;;;;;;;;4985260;28;20114;-83
2022/02/01 09:10:32;;;;;;;15.50;5.82;;;;;;;;;;4984572;28;20295;-83
2022/02/01 09:12:59;;;;;;;16.27;6.55;;;;;;;;;;5002459;28;20118;-83
2022/02/01 09:15:26;;;;;;;15.82;5.60;;;;;;;;;;5002881;28;20038;-83
2022/02/01 09:17:57;;;;;;;13.52;7.00;;;;;;;;;;5018409;28;20026;-83
2022/02/01 09:20:26;;;;;;;15.07;5.88;;;;;;;;;;5004696;28;20084;-84
2022/02/01 09:22:52;;;;;;;19.90;8.05;;;;;;;;;;5019941;28;20019;-84
2022/02/01 09:25:19;;;;;;;15.38;7.38;;;;;;;;;;5018999;28;20038;-82
2022/02/01 09:27:46;;;;;;;19.38;7.60;;;;;;;;;;5018448;28;20035;-83
2022/02/01 09:30:14;;;;;;;20.52;7.95;;;;;;;;;;5002894;28;20022;-82
2022/02/01 09:32:40;;;;;;;14.23;7.07;;;;;;;;;;5003512;28;20022;-83
2022/02/01 09:35:07;;;;;;;14.45;5.75;;;;;;;;;;5002929;28;20033;-83
2022/02/01 09:37:33;;;;;;;16.83;9.20;;;;;;;;;;5002348;28;20030;-82
2022/02/01 09:39:59;;;;;;;17.67;7.10;;;;;;;;;;5002756;28;20030;-83
2022/02/01 09:42:27;;;;;;;20.10;10.07;;;;;;;;;;5003799;28;20041;-82
2022/02/01 09:44:57;;;;;;;14.90;7.10;;;;;;;;;;5004662;28;20026;-82
2022/02/01 09:47:33;;;;;;;13.55;6.43;;;;;;;;;;5008655;28;20018;-83
2022/02/01 09:50:02;;;;;;;15.82;5.60;;;;;;;;;;5002481;28;20026;-83
2022/02/01 09:52:30;;;;;;;15.48;7.63;;;;;;;;;;5000560;28;20031;-83
2022/02/01 09:54:57;;;;;;;19.45;8.20;;;;;;;;;;4998081;28;20391;-82
2022/02/01 09:57:23;;;;;;;13.15;6.80;;;;;;;;;;4999997;28;20054;-83
2022/02/01 09:59:53;;;;;;;11.55;6.10;;;;;;;;;;4997010;28;20034;-83
2022/02/01 10:02:20;;;;;;;14.32;6.68;;;;;;;;;;4997795;28;20508;-82
2022/02/01 10:04:50;;;;;;;17.63;8.13;;;;;;;;;;5001128;28;20456;-83
2022/02/01 10:07:16;;;;;;;18.52;8.02;;;;;;;;;;5000158;28;20014;-83
2022/02/01 10:09:53;;;;;;;15.82;8.32;;;;;;;;;;5000837;28;20027;-85
2022/02/01 10:12:19;;;;;;;17.40;7.15;;;;;;;;;;5002960;28;20038;-84
2022/02/01 10:14:53;;;;;;;16.13;7.90;;;;;;;;;;4987799;28;20025;-82
2022/02/01 10:17:28;;;;;;;12.32;6.28;;;;;;;;;;5000617;28;20026;-83
2022/02/01 10:19:54;;;;;;;15.35;7.10;;;;;;;;;;5002564;28;20377;-84
2022/02/01 10:22:29;;;;;;;16.50;8.25;;;;;;;;;;5002135;28;20445;-85
2022/02/01 10:24:55;;;;;;;9.63;4.95;;;;;;;;;;5002645;28;20022;-85
2022/02/01 10:27:24;;;;;;;12.77;6.30;;;;;;;;;;5001818;28;20031;-83
2022/02/01 10:30:02;;;;;;;15.13;7.63;;;;;;;;;;5003667;28;20389;-83
2022/02/01 10:32:50;;;;;;;13.52;6.85;;;;;;;;;;5003194;28;20045;-84
2022/02/01 10:35:34;;;;;;;12.27;6.63;;;;;;;;;;5001140;28;20038;-83
2022/02/01 10:38:03;;;;;;;15.00;6.85;;;;;;;;;;5005070;28;20023;-83
2022/02/01 10:40:45;;;;;;;13.48;7.28;;;;;;;;;;5000959;28;20030;-83
2022/02/01 10:43:21;;;;;;;12.45;6.05;;;;;;;;;;4991358;28;20034;-83
2022/02/01 10:45:48;;;;;;;12.13;6.05;;;;;;;;;;5001108;28;20448;-83
2022/02/01 10:48:16;;;;;;;13.60;6.55;;;;;;;;;;5007002;28;20101;-83
2022/02/01 10:50:43;;;;;;;15.85;7.20;;;;;;;;;;5007452;28;20042;-83
2022/02/01 10:53:19;;;;;;;10.95;6.82;;;;;;;;;;5010868;28;20404;-84
2022/02/01 10:55:46;;;;;;;13.77;7.13;;;;;;;;;;5010731;28;20034;-83
2022/02/01 10:58:14;;;;;;;16.95;5.70;;;;;;;;;;5009936;28;20049;-81
2022/02/01 11:00:41;;;;;;;14.07;7.70;;;;;;;;;;5006415;28;20542;-84
2022/02/01 11:03:07;;;;;;;11.20;5.85;;;;;;;;;;5001236;28;20042;-85
2022/02/01 11:05:34;;;;;;;14.45;8.07;;;;;;;;;;4999454;28;20031;-84
2022/02/01 11:08:00;;;;;;;15.52;8.15;;;;;;;;;;5003462;28;20027;-83
2022/02/01 11:10:26;;;;;;;13.45;6.18;;;;;;;;;;4996032;28;20392;-82
2022/02/01 11:12:52;;;;;;;11.50;5.10;;;;;;;;;;5002703;28;20023;-83
2022/02/01 11:15:24;;;;;;;12.18;7.32;;;;;;;;;;5003672;28;20053;-82
2022/02/01 11:17:52;;;;;;;11.07;4.95;;;;;;;;;;5004631;28;20120;-83
2022/02/01 11:20:29;;;;;;;8.43;4.65;;;;;;;;;;5005930;28;20033;-82
2022/02/01 11:23:07;;;;;;;11.13;4.75;;;;;;;;;;5007393;28;20612;-85
2022/02/01 11:25:46;;;;;;;9.20;4.70;;;;;;;;;;5005944;28;20042;-84
2022/02/01 11:28:32;;;;;;;7.07;4.25;;;;;;;;;;5005616;28;20121;-85
2022/02/01 11:31:00;;;;;;;7.68;4.18;;;;;;;;;;5005630;28;20019;-84
2022/02/01 11:33:35;;;;;;;6.88;3.80;;;;;;;;;;5006053;28;20018;-85
2022/02/01 11:36:05;;;;;;;10.90;5.00;;;;;;;;;;5002863;28;20392;-84
2022/02/01 11:38:31;;;;;;;10.55;5.18;;;;;;;;;;4998078;28;20030;-83
2022/02/01 11:41:03;;;;;;;8.10;4.40;;;;;;;;;;4995048;28;20027;-85
2022/02/01 11:43:30;;;;;;;8.82;4.45;;;;;;;;;;4988974;28;20034;-85
2022/02/01 11:46:01;;;;;;;11.20;4.13;;;;;;;;;;5000365;28;20378;-83
2022/02/01 11:48:29;;;;;;;10.25;4.30;;;;;;;;;;5006902;28;20086;-84
2022/02/01 11:51:05;;;;;;;10.27;4.10;;;;;;;;;;5004126;28;20050;-85
2022/02/01 11:53:35;;;;;;;6.97;3.88;;;;;;;;;;5002009;28;20026;-84
2022/02/01 11:56:03;;;;;;;5.80;3.30;;;;;;;;;;5002052;28;20076;-85
2022/02/01 11:58:33;;;;;;;12.85;5.68;;;;;;;;;;5007244;28;20144;-83
2022/02/01 12:01:01;;;;;;;6.03;3.83;;;;;;;;;;5004228;28;20033;-84
2022/02/01 12:03:32;;;;;;;9.32;5.25;;;;;;;;;;5004687;28;20047;-85
2022/02/01 12:06:05;;;;;;;7.90;3.05;;;;;;;;;;4999500;28;20037;-83
2022/02/01 12:08:33;;;;;;;8.20;4.15;;;;;;;;;;4999071;28;20469;-83
2022/02/01 12:11:01;;;;;;;7.38;4.03;;;;;;;;;;5000570;28;20030;-84
2022/02/01 12:13:28;;;;;;;5.60;2.97;;;;;;;;;;5003878;28;20042;-83
2022/02/01 12:15:55;;;;;;;7.18;3.40;;;;;;;;;;4999803;28;20037;-84
2022/02/01 12:18:45;;;;;;;8.27;4.63;;;;;;;;;;5004824;28;20038;-83
2022/02/01 12:21:35;;;;;;;7.35;3.00;;;;;;;;;;4991309;28;20052;-84
2022/02/01 12:24:04;;;;;;;6.40;3.40;;;;;;;;;;4985339;28;20069;-84
2022/02/01 12:26:35;;;;;;;8.43;3.13;;;;;;;;;;4985550;28;20034;-84
2022/02/01 12:29:03;;;;;;;6.32;2.90;;;;;;;;;;4997934;28;20035;-83
2022/02/01 12:31:31;;;;;;;6.90;2.63;;;;;;;;;;5005118;28;20552;-84
2022/02/01 12:33:58;;;;;;;5.93;2.80;;;;;;;;;;5004730;28;20033;-85
2022/02/01 12:36:27;;;;;;;6.90;3.05;;;;;;;;;;5003285;28;20085;-84
2022/02/01 12:39:03;;;;;;;6.25;2.88;;;;;;;;;;5001961;28;20086;-82
2022/02/01 12:41:33;;;;;;;6.15;2.92;;;;;;;;;;5004710;28;20033;-83
2022/02/01 12:46:46;;;;;;;6.32;2.85;;;;;;;;;;4990982;28;20031;-83
2022/02/01 12:49:13;;;;;;;7.72;4.07;;;;;;;;;;5003288;28;20102;-81
2022/02/01 12:51:46;;;;;;;7.03;2.42;;;;;;;;;;4996952;28;20027;-82
2022/02/01 12:54:22;;;;;;;6.20;2.35;;;;;;;;;;5004137;28;20033;-82
2022/02/01 12:56:49;;;;;;;4.30;2.17;;;;;;;;;;4994524;28;20053;-82
2022/02/01 12:59:15;;;;;;;6.60;2.67;;;;;;;;;;5000462;28;20030;-82
2022/02/01 13:01:41;;;;;;;6.18;2.95;;;;;;;;;;4988010;28;20031;-83
2022/02/01 13:04:08;;;;;;;6.25;2.40;;;;;;;;;;5006437;28;20034;-82
2022/02/01 13:06:37;;;;;;;5.43;2.53;;;;;;;;;;5006765;28;20026;-83
2022/02/01 13:14:44;;;;;;;6.20;2.60;;;;;;;;;;5003410;28;20036;-82
2022/02/01 13:18:00;;;;;;;7.05;2.60;;;;;;;;;;4989451;28;20029;-83
2022/02/01 13:20:13;;;;;;;8.05;3.17;;;;;;;;;;4996691;28;20054;-81
2022/02/01 13:22:53;;;;;;;4.55;2.35;;;;;;;;;;5000163;28;20026;-82
2022/02/01 13:25:27;;;;;;;11.38;4.35;;;;;;;;;;5001446;28;20023;-82
2022/02/01 13:28:00;;;;;;;6.68;2.90;;;;;;;;;;5000408;28;20122;-81
2022/02/01 13:30:27;;;;;;;4.55;2.00;;;;;;;;;;5001984;28;20033;-85
2022/02/01 13:32:53;;;;;;;5.10;2.42;;;;;;;;;;5002353;28;20026;-81
2022/02/01 13:35:20;;;;;;;9.02;2.85;;;;;;;;;;4992749;28;20508;-80
2022/02/01 13:37:47;;;;;;;5.38;2.40;;;;;;;;;;4986836;28;20113;-83
2022/02/01 13:40:24;;;;;;;4.85;2.33;;;;;;;;;;4999377;28;20081;-83
2022/02/01 13:42:50;;;;;;;5.88;2.30;;;;;;;;;;5000841;28;20034;-82
2022/02/01 16:53:44;;;;;;;8.90;3.13;;;;;;;;;;5102447;27;20427;-83
2022/02/01 17:01:32;;;;;;;5.90;2.17;;;;;;;;;;5084994;28;20050;-80
2022/02/01 17:03:58;;;;;;;5.47;2.60;;;;;;;;;;5070454;28;20041;-81
2022/02/01 17:06:25;;;;;;;5.47;1.80;;;;;;;;;;5094306;28;20080;-83
2022/02/01 17:08:51;;;;;;;5.18;2.05;;;;;;;;;;5076764;28;20096;-82
2022/02/01 17:21:56;;;;;;;6.40;1.90;;;;;;;;;;5099752;28;20029;-80
2022/02/01 17:24:23;;;;;;;6.20;3.40;;;;;;;;;;5077755;28;20021;-82
2022/02/01 17:26:50;;;;;;;7.80;5.57;;;;;;;;;;5073149;28;20056;-81
2022/02/01 17:29:16;;;;;;;5.32;2.13;;;;;;;;;;5096562;28;20029;-82
2022/02/01 17:31:42;;;;;;;4.50;1.88;;;;;;;;;;5066571;28;20032;-82
2022/02/01 17:34:10;;;;;;;5.25;2.33;;;;;;;;;;5095474;28;20021;-81
2022/02/01 17:36:36;;;;;;;6.07;2.45;;;;;;;;;;5081941;28;20023;-79
2022/02/01 17:39:03;;;;;;;5.30;2.40;;;;;;;;;;5080482;28;20078;-81
2022/02/01 17:41:30;;;;;;;7.22;3.67;;;;;;;;;;5081127;28;20047;-81
2022/02/01 17:43:57;;;;;;;5.65;1.90;;;;;;;;;;5066489;28;20025;-82
2022/02/01 17:46:23;;;;;;;5.80;2.15;;;;;;;;;;5071738;28;20092;-83
2022/02/01 17:48:52;;;;;;;4.43;1.95;;;;;;;;;;5090214;28;20024;-81
2022/02/01 17:52:00;;;;;;;5.18;2.08;;;;;;;;;;5074530;28;20568;-80
2022/02/01 17:54:27;;;;;;;4.63;1.65;;;;;;;;;;5078878;28;20068;-84
2022/02/01 17:56:54;;;;;;;7.53;2.33;;;;;;;;;;5058191;28;20051;-81
2022/02/01 17:59:24;;;;;;;5.72;2.25;;;;;;;;;;5077353;28;20053;-81
2022/02/01 18:01:50;;;;;;;6.03;2.17;;;;;;;;;;5070021;28;20724;-84
2022/02/01 18:04:17;;;;;;;4.28;1.92;;;;;;;;;;5063839;28;20506;-82
2022/02/01 18:06:43;;;;;;;5.28;2.20;;;;;;;;;;5069572;28;20112;-84
2022/02/01 18:09:11;;;;;;;4.18;2.10;;;;;;;;;;5068528;28;20029;-82
2022/02/01 18:17:02;;;;;;;3.97;1.60;;;;;;;;;;5080475;28;20051;-84
2022/02/01 18:19:38;;;;;;;4.32;1.63;;;;;;;;;;5051502;28;20025;-79
2022/02/01 18:22:07;;;;;;;5.50;1.70;;;;;;;;;;5058992;28;20112;-79
2022/02/01 18:24:35;;;;;;;3.50;1.55;;;;;;;;;;5082471;28;20032;-80
2022/02/01 18:27:02;;;;;;;4.97;2.03;;;;;;;;;;5053137;28;20041;-83
2022/02/01 18:29:28;;;;;;;3.53;1.63;;;;;;;;;;5052843;28;20055;-81
2022/02/01 18:31:55;;;;;;;3.45;1.65;;;;;;;;;;5066644;28;20151;-82
2022/02/01 18:34:21;;;;;;;3.45;1.60;;;;;;;;;;5087877;28;20027;-82
2022/02/01 18:36:48;;;;;;;4.68;1.88;;;;;;;;;;5077713;28;20032;-81
2022/02/01 18:39:15;;;;;;;3.50;1.58;;;;;;;;;;5093503;28;20025;-82
2022/02/01 18:41:42;;;;;;;5.30;1.70;;;;;;;;;;5067611;28;20033;-82
2022/02/01 18:44:13;;;;;;;5.38;1.70;;;;;;;;;;5050478;28;20033;-84
2022/02/01 18:46:53;;;;;;;4.50;1.70;;;;;;;;;;5049226;28;20035;-83
2022/02/01 18:52:09;;;;;;;4.20;2.13;;;;;;;;;;5072891;28;20123;-83
2022/02/01 18:54:54;;;;;;;4.90;1.75;;;;;;;;;;5053063;28;20056;-81
2022/02/01 18:57:25;;;;;;;3.88;1.55;;;;;;;;;;5079987;28;20032;-82
2022/02/01 19:02:52;;;;;;;3.00;1.25;;;;;;;;;;5067975;28;20040;-83
2022/02/01 19:06:05;;;;;;;2.85;1.23;;;;;;;;;;4986720;28;20110;-82
2022/02/01 19:14:02;;;;;;;2.80;1.05;;;;;;;;;;5086404;28;20093;-82
2022/02/01 19:16:32;;;;;;;3.63;1.50;;;;;;;;;;5077086;28;20476;-84
2022/02/01 19:18:59;;;;;;;3.50;1.13;;;;;;;;;;5047386;28;20044;-82
2022/02/01 19:21:33;;;;;;;2.92;1.27;;;;;;;;;;5047958;28;20029;-83
2022/02/01 19:24:03;;;;;;;2.45;1.13;;;;;;;;;;5054117;28;20040;-81
2022/02/01 19:26:32;;;;;;;2.78;0.98;;;;;;;;;;5053243;28;20029;-82
2022/02/01 19:28:59;;;;;;;3.40;1.20;;;;;;;;;;5067225;28;20025;-84
2022/02/01 19:31:31;;;;;;;2.17;0.80;;;;;;;;;;5085423;28;20403;-83
2022/02/01 19:33:59;;;;;;;4.25;1.35;;;;;;;;;;5048218;28;20044;-84
2022/02/01 19:36:25;;;;;;;3.10;1.17;;;;;;;;;;5080009;28;20020;-84
2022/02/01 19:38:54;;;;;;;2.63;0.80;;;;;;;;;;5048685;28;20067;-81
2022/02/01 19:41:23;;;;;;;2.45;0.90;;;;;;;;;;5065629;28;20024;-82
2022/02/01 19:43:55;;;;;;;3.30;1.05;;;;;;;;;;5050653;28;20029;-82
2022/02/01 19:46:28;;;;;;;2.70;1.08;;;;;;;;;;5072627;28;20021;-83
2022/02/01 19:48:58;;;;;;;3.45;1.00;;;;;;;;;;5049171;28;20025;-81